createdAt,value
2022-08-16T00:02:33.363Z,100.00
2022-08-16T00:05:00.779Z,100.00
2022-08-16T00:07:29.500Z,100.00
2022-08-16T00:09:58.693Z,100.00
2022-08-16T00:12:28.889Z,100.00
2022-08-16T00:14:57.352Z,100.00
2022-08-16T00:17:27.046Z,100.00
2022-08-16T00:19:55.713Z,100.00
2022-08-16T00:22:24.967Z,100.00
2022-08-16T00:24:54.467Z,100.00
2022-08-16T00:27:22.841Z,100.00
2022-08-16T00:30:08.841Z,100.00
2022-08-16T00:32:40.164Z,100.00
2022-08-16T00:35:15.080Z,100.00
2022-08-16T00:37:57.868Z,100.00
2022-08-16T00:40:50.885Z,100.00
2022-08-16T00:43:43.441Z,100.00
2022-08-16T00:46:22.470Z,100.00
2022-08-16T00:48:58.556Z,100.00
2022-08-16T00:51:29.404Z,100.00
2022-08-16T00:53:57.280Z,100.00
2022-08-16T00:56:56.644Z,100.00
2022-08-16T00:59:16.183Z,100.00
2022-08-16T01:01:44.748Z,100.00
2022-08-16T01:04:30.104Z,100.00
2022-08-16T01:07:04.962Z,100.00
2022-08-16T01:09:38.489Z,100.00
2022-08-16T01:12:10.984Z,100.00
2022-08-16T01:14:57.296Z,100.00
2022-08-16T01:17:26.564Z,100.00
2022-08-16T01:19:59.043Z,100.00
2022-08-16T01:22:52.538Z,100.00
2022-08-16T01:25:33.931Z,100.00
2022-08-16T01:28:04.957Z,100.00
2022-08-16T01:30:39.989Z,100.00
2022-08-16T01:33:19.771Z,100.00
2022-08-16T01:36:01.069Z,100.00
2022-08-16T01:38:33.191Z,100.00
2022-08-16T01:41:13.279Z,100.00
2022-08-16T01:43:53.474Z,100.00
2022-08-16T01:46:39.495Z,100.00
2022-08-16T01:49:21.761Z,100.00
2022-08-16T01:51:59.587Z,100.00
2022-08-16T01:54:39.981Z,100.00
2022-08-16T01:57:07.391Z,100.00
2022-08-16T01:59:39.904Z,100.00
2022-08-16T02:02:27.540Z,100.00
2022-08-16T02:04:57.558Z,100.00
2022-08-16T02:07:25.911Z,100.00
2022-08-16T02:09:58.577Z,100.00
2022-08-16T02:12:49.483Z,100.00
2022-08-16T02:15:25.525Z,100.00
2022-08-16T02:17:57.271Z,100.00
2022-08-16T02:20:27.778Z,100.00
2022-08-16T02:22:57.412Z,100.00
2022-08-16T02:25:25.236Z,100.00
2022-08-16T02:28:12.036Z,100.00
2022-08-16T02:30:50.006Z,100.00
2022-08-16T02:33:18.295Z,100.00
2022-08-16T02:35:54.470Z,100.00
2022-08-16T02:38:28.904Z,100.00
2022-08-16T02:40:59.063Z,100.00
2022-08-16T02:43:29.083Z,100.00
2022-08-16T02:46:01.631Z,100.00
2022-08-16T02:48:31.109Z,100.00
2022-08-16T02:51:06.236Z,100.00
2022-08-16T02:53:43.250Z,100.00
2022-08-16T02:56:14.869Z,100.00
2022-08-16T02:58:44.025Z,100.00
2022-08-16T03:01:25.310Z,100.00
2022-08-16T03:04:39.406Z,100.00
2022-08-16T03:06:47.858Z,100.00
2022-08-16T03:09:20.844Z,100.00
2022-08-16T03:11:52.252Z,100.00
2022-08-16T03:14:21.393Z,100.00
2022-08-16T03:16:59.446Z,100.00
2022-08-16T03:19:42.225Z,100.00
2022-08-16T03:22:28.184Z,100.00
2022-08-16T03:25:01.147Z,100.00
2022-08-16T03:27:32.412Z,100.00
2022-08-16T03:30:17.356Z,100.00
2022-08-16T03:32:51.348Z,100.00
2022-08-16T03:35:22.057Z,100.00
2022-08-16T03:38:33.481Z,100.00
2022-08-16T03:41:00.593Z,100.00
2022-08-16T03:43:51.632Z,100.00
2022-08-16T03:46:44.505Z,100.00
2022-08-16T03:49:11.402Z,100.00
2022-08-16T03:51:40.516Z,100.00
2022-08-16T03:54:13.001Z,100.00
2022-08-16T03:56:56.938Z,100.00
2022-08-16T03:59:24.254Z,100.00
2022-08-16T04:01:53.657Z,100.00
2022-08-16T04:04:32.236Z,100.00
2022-08-16T04:06:59.598Z,100.00
2022-08-16T04:09:26.400Z,100.00
2022-08-16T04:11:53.136Z,100.00
2022-08-16T04:14:33.146Z,100.00
2022-08-16T04:17:01.830Z,100.00
2022-08-16T04:19:35.338Z,100.00
2022-08-16T04:22:02.960Z,100.00
2022-08-16T04:24:42.684Z,100.00
2022-08-16T04:27:21.278Z,100.00
2022-08-16T04:29:47.951Z,100.00
2022-08-16T04:32:26.572Z,100.00
2022-08-16T04:34:53.895Z,100.00
2022-08-16T04:37:21.872Z,100.00
2022-08-16T04:39:55.615Z,100.00
2022-08-16T04:42:26.519Z,100.00
2022-08-16T04:44:58.309Z,100.00
2022-08-16T04:47:33.296Z,100.00
2022-08-16T04:50:18.120Z,100.00
2022-08-16T04:52:59.238Z,100.00
2022-08-16T04:55:37.631Z,100.00
2022-08-16T04:58:43.711Z,100.00
2022-08-16T05:00:56.416Z,100.00
2022-08-16T05:03:23.993Z,100.00
2022-08-16T05:05:59.131Z,100.00
2022-08-16T05:08:32.816Z,100.00
2022-08-16T05:11:16.143Z,100.00
2022-08-16T05:13:47.146Z,100.00
2022-08-16T05:16:27.047Z,100.00
2022-08-16T05:19:02.239Z,100.00
2022-08-16T05:21:37.987Z,100.00
2022-08-16T05:24:07.824Z,100.00
2022-08-16T05:26:43.283Z,100.00
2022-08-16T05:29:16.971Z,100.00
2022-08-16T05:32:01.338Z,100.00
2022-08-16T05:34:29.021Z,100.00
2022-08-16T05:36:57.346Z,100.00
2022-08-16T05:39:31.252Z,100.00
2022-08-16T05:42:00.498Z,100.00
2022-08-16T05:44:27.192Z,100.00
2022-08-16T05:47:00.183Z,100.00
2022-08-16T05:49:38.364Z,100.00
2022-08-16T05:52:11.585Z,100.00
2022-08-16T05:54:47.313Z,100.00
2022-08-16T05:57:18.605Z,100.00
2022-08-16T05:59:47.506Z,100.00
2022-08-16T06:02:18.980Z,100.00
2022-08-16T06:04:46.243Z,100.00
2022-08-16T06:07:26.714Z,100.00
2022-08-16T06:10:14.725Z,100.00
2022-08-16T06:12:59.176Z,100.00
2022-08-16T06:15:26.044Z,100.00
2022-08-16T06:17:53.851Z,100.00
2022-08-16T06:20:35.107Z,100.00
2022-08-16T06:23:17.285Z,100.00
2022-08-16T06:26:10.718Z,100.00
2022-08-16T06:28:41.844Z,100.00
2022-08-16T06:31:15.115Z,100.00
2022-08-16T06:33:46.076Z,100.00
2022-08-16T06:36:16.948Z,100.00
2022-08-16T06:38:56.763Z,100.00
2022-08-16T06:41:42.289Z,100.00
2022-08-16T06:44:20.730Z,100.00
2022-08-16T06:46:50.353Z,100.00
2022-08-16T06:49:18.136Z,100.00
2022-08-16T06:51:48.418Z,100.00
2022-08-16T06:54:20.983Z,100.00
2022-08-16T06:56:47.723Z,100.00
2022-08-16T06:59:25.633Z,100.00
2022-08-16T07:01:58.121Z,100.00
2022-08-16T07:04:32.932Z,100.00
2022-08-16T07:07:11.338Z,100.00
2022-08-16T07:09:41.651Z,100.00
2022-08-16T07:12:08.845Z,100.00
2022-08-16T07:14:40.522Z,100.00
2022-08-16T07:17:08.472Z,100.00
2022-08-16T07:20:03.693Z,100.00
2022-08-16T07:22:39.831Z,100.00
2022-08-16T07:25:31.231Z,100.00
2022-08-16T07:27:59.523Z,100.00
2022-08-16T07:30:39.251Z,100.00
2022-08-16T07:33:41.277Z,100.00
2022-08-16T07:36:09.897Z,100.00
2022-08-16T07:38:42.325Z,100.00
2022-08-16T07:41:11.041Z,100.00
2022-08-16T07:43:43.539Z,100.00
2022-08-16T07:46:37.748Z,100.00
2022-08-16T07:49:04.712Z,100.00
2022-08-16T07:51:39.714Z,100.00
2022-08-16T07:54:20.718Z,100.00
2022-08-16T07:56:57.945Z,100.00
2022-08-16T07:59:26.053Z,100.00
2022-08-16T08:02:12.254Z,97.25
2022-08-16T08:04:40.697Z,100.00
2022-08-16T08:07:08.964Z,100.00
2022-08-16T08:09:36.702Z,100.00
2022-08-16T08:12:31.394Z,91.83
2022-08-16T08:14:57.391Z,90.22
2022-08-16T08:17:24.567Z,88.31
2022-08-16T08:20:12.507Z,92.17
2022-08-16T08:22:39.403Z,85.87
2022-08-16T08:25:09.830Z,88.39
2022-08-16T08:27:42.376Z,86.79
2022-08-16T08:30:52.249Z,83.86
2022-08-16T08:33:00.794Z,79.50
2022-08-16T08:35:35.577Z,75.09
2022-08-16T08:38:04.246Z,75.62
2022-08-16T08:40:33.573Z,80.66
2022-08-16T08:43:12.071Z,83.45
2022-08-16T08:45:53.096Z,85.38
2022-08-16T08:48:33.863Z,89.69
2022-08-16T08:51:08.742Z,94.81
2022-08-16T08:53:43.121Z,90.78
2022-08-16T08:56:22.940Z,91.75
2022-08-16T08:58:58.929Z,92.94
2022-08-16T09:01:42.988Z,93.86
2022-08-16T09:04:29.932Z,84.54
2022-08-16T09:06:58.544Z,79.03
2022-08-16T09:09:33.141Z,75.79
2022-08-16T09:12:06.318Z,71.41
2022-08-16T09:14:50.826Z,73.43
2022-08-16T09:17:45.391Z,73.22
2022-08-16T09:20:14.060Z,72.95
2022-08-16T09:22:42.560Z,70.29
2022-08-16T09:25:12.348Z,71.03
2022-08-16T09:27:56.598Z,68.64
2022-08-16T09:30:33.286Z,67.51
2022-08-16T09:33:39.926Z,61.68
2022-08-16T09:36:12.132Z,62.12
2022-08-16T09:38:59.992Z,58.54
2022-08-16T09:41:28.169Z,58.01
2022-08-16T09:44:00.102Z,57.86
2022-08-16T09:46:49.200Z,57.28
2022-08-16T09:49:19.719Z,61.03
2022-08-16T09:51:48.251Z,62.32
2022-08-16T09:54:20.964Z,63.56
2022-08-16T09:56:52.137Z,65.54
2022-08-16T09:59:22.790Z,69.37
2022-08-16T10:01:51.101Z,69.46
2022-08-16T10:04:28.224Z,70.75
2022-08-16T10:09:44.834Z,60.74
2022-08-16T10:12:55.813Z,65.09
2022-08-16T10:15:24.567Z,64.43
2022-08-16T10:18:01.175Z,61.23
2022-08-16T10:20:32.547Z,59.31
2022-08-16T10:23:06.915Z,59.50
2022-08-16T10:27:16.667Z,58.07
2022-08-16T10:28:29.301Z,60.50
2022-08-16T10:30:59.710Z,61.33
2022-08-16T10:33:29.467Z,57.33
2022-08-16T10:35:57.667Z,54.83
2022-08-16T10:38:27.898Z,52.16
2022-08-16T10:40:55.043Z,50.34
2022-08-16T10:43:23.349Z,48.67
2022-08-16T10:45:57.232Z,50.78
2022-08-16T10:48:28.846Z,51.18
2022-08-16T10:51:00.133Z,50.70
2022-08-16T10:53:32.784Z,51.15
2022-08-16T10:56:02.651Z,54.72
2022-08-16T10:58:34.487Z,55.49
2022-08-16T11:03:54.118Z,58.98
2022-08-16T11:06:26.823Z,60.38
2022-08-16T11:14:29.150Z,54.74
2022-08-16T11:17:09.318Z,52.82
2022-08-16T11:22:47.990Z,51.61
2022-08-16T11:28:36.148Z,49.99
2022-08-16T11:30:59.458Z,47.30
2022-08-16T11:36:29.697Z,45.09
2022-08-16T11:39:00.697Z,44.15
2022-08-16T11:41:29.434Z,43.86
2022-08-16T11:43:59.325Z,44.36
2022-08-16T11:46:44.814Z,46.59
2022-08-16T11:49:14.345Z,47.33
2022-08-16T11:51:44.302Z,48.57
2022-08-16T11:54:20.582Z,47.49
2022-08-16T11:56:52.386Z,47.20
2022-08-16T11:59:40.018Z,46.53
2022-08-16T12:02:31.564Z,44.88
2022-08-16T12:04:55.880Z,44.67
2022-08-16T12:07:23.527Z,46.69
2022-08-16T12:09:53.204Z,48.59
2022-08-16T12:12:20.951Z,48.49
2022-08-16T12:14:54.635Z,49.37
2022-08-16T12:17:31.500Z,48.52
2022-08-16T12:20:00.475Z,46.66
2022-08-16T12:22:28.061Z,45.01
2022-08-16T12:24:55.375Z,44.20
2022-08-16T12:27:24.583Z,43.86
2022-08-16T12:29:58.444Z,44.22
2022-08-16T12:32:45.886Z,46.61
2022-08-16T12:35:16.022Z,47.04
2022-08-16T12:37:46.114Z,48.09
2022-08-16T12:40:24.975Z,47.86
2022-08-16T12:42:59.703Z,48.32
2022-08-16T12:45:31.159Z,46.72
2022-08-16T12:48:34.534Z,47.62
2022-08-16T12:51:04.442Z,47.47
2022-08-16T12:53:36.018Z,48.83
2022-08-16T12:56:07.536Z,50.09
2022-08-16T12:58:50.381Z,50.59
2022-08-16T13:01:22.500Z,51.32
2022-08-16T13:03:59.105Z,51.38
2022-08-16T13:06:33.409Z,51.63
2022-08-16T13:09:02.470Z,51.35
2022-08-16T13:11:41.535Z,50.35
2022-08-16T13:14:31.035Z,50.86
2022-08-16T13:17:02.589Z,50.83
2022-08-16T13:19:49.787Z,51.23
2022-08-16T13:22:19.681Z,51.35
2022-08-16T13:24:47.291Z,50.09
2022-08-16T13:27:14.006Z,48.43
2022-08-16T13:29:44.134Z,46.31
2022-08-16T13:32:39.579Z,45.93
2022-08-16T13:35:01.135Z,44.71
2022-08-16T13:37:33.473Z,43.95
2022-08-16T13:40:07.731Z,42.96
2022-08-16T13:42:41.413Z,42.39
2022-08-16T13:45:20.484Z,42.57
2022-08-16T13:47:55.816Z,43.84
2022-08-16T13:50:31.177Z,43.82
2022-08-16T13:53:13.494Z,44.11
2022-08-16T13:55:42.043Z,43.70
2022-08-16T13:58:35.070Z,43.97
2022-08-16T14:00:59.670Z,45.31
2022-08-16T14:03:29.090Z,44.60
2022-08-16T14:05:59.899Z,43.15
2022-08-16T14:08:31.888Z,43.43
2022-08-16T14:10:59.111Z,43.59
2022-08-16T14:13:25.829Z,43.22
2022-08-16T14:15:55.265Z,43.04
2022-08-16T14:18:22.501Z,42.93
2022-08-16T14:20:58.472Z,43.21
2022-08-16T14:23:25.355Z,42.87
2022-08-16T14:25:53.965Z,43.05
2022-08-16T14:28:23.500Z,41.98
2022-08-16T14:30:50.580Z,41.75
2022-08-16T14:33:18.469Z,41.61
2022-08-16T14:35:48.579Z,42.69
2022-08-16T14:38:23.862Z,42.46
2022-08-16T14:40:55.304Z,42.21
2022-08-16T14:43:24.795Z,41.29
2022-08-16T14:45:51.591Z,41.84
2022-08-16T14:48:26.313Z,41.02
2022-08-16T14:50:54.601Z,41.38
2022-08-16T14:53:23.667Z,41.48
2022-08-16T14:55:50.766Z,41.97
2022-08-16T14:58:20.216Z,40.97
2022-08-16T15:01:02.005Z,41.86
2022-08-16T15:03:30.151Z,41.98
2022-08-16T15:06:00.433Z,41.51
2022-08-16T15:08:36.109Z,41.79
2022-08-16T15:11:06.123Z,41.03
2022-08-16T15:13:35.156Z,41.43
2022-08-16T15:16:03.607Z,41.41
2022-08-16T15:18:32.305Z,42.43
2022-08-16T15:21:01.711Z,42.27
2022-08-16T15:23:28.499Z,41.68
2022-08-16T15:26:03.012Z,42.04
2022-08-16T15:28:32.450Z,42.76
2022-08-16T15:31:04.682Z,42.35
2022-08-16T15:33:38.902Z,43.31
2022-08-16T15:36:13.832Z,43.35
2022-08-16T15:39:03.066Z,44.13
2022-08-16T15:41:43.671Z,43.76
2022-08-16T15:44:21.338Z,43.93
2022-08-16T15:46:55.439Z,43.61
2022-08-16T15:49:23.018Z,43.32
2022-08-16T15:51:51.943Z,43.91
2022-08-16T15:54:30.396Z,43.56
2022-08-16T15:57:10.962Z,42.87
2022-08-16T15:59:49.523Z,42.51
2022-08-16T16:02:29.290Z,42.47
2022-08-16T16:05:04.300Z,42.83
2022-08-16T16:07:33.315Z,42.95
2022-08-16T16:10:01.701Z,43.08
2022-08-16T16:12:50.799Z,42.66
2022-08-16T16:15:18.574Z,43.27
2022-08-16T16:17:45.523Z,42.97
2022-08-16T16:20:19.731Z,42.64
2022-08-16T16:22:47.467Z,39.56
2022-08-16T16:25:15.875Z,36.10
2022-08-16T16:27:44.103Z,34.08
2022-08-16T16:30:33.198Z,32.98
2022-08-16T16:33:00.944Z,32.23
2022-08-16T16:35:32.787Z,32.19
2022-08-16T16:38:01.006Z,30.78
2022-08-16T16:40:32.211Z,30.68
2022-08-16T16:43:00.535Z,30.33
2022-08-16T16:45:34.556Z,30.84
2022-08-16T16:48:12.474Z,29.98
2022-08-16T16:50:44.559Z,29.83
2022-08-16T16:53:17.097Z,30.34
2022-08-16T16:55:51.660Z,29.66
2022-08-16T16:58:43.542Z,30.42
2022-08-16T17:01:20.934Z,29.85
2022-08-16T17:04:19.229Z,29.71
2022-08-16T17:06:53.570Z,29.47
2022-08-16T17:09:24.683Z,29.93
2022-08-16T17:11:55.358Z,29.44
2022-08-16T17:14:32.105Z,29.14
2022-08-16T17:17:08.459Z,29.27
2022-08-16T17:19:41.077Z,29.64
2022-08-16T17:22:19.750Z,29.80
2022-08-16T17:24:53.226Z,30.19
2022-08-16T17:27:32.770Z,30.54
2022-08-16T17:30:17.069Z,30.58
2022-08-16T17:32:54.490Z,30.92
2022-08-16T17:35:34.144Z,31.26
2022-08-16T17:38:04.699Z,31.17
2022-08-16T17:40:47.801Z,32.79
2022-08-16T17:43:29.074Z,34.96
2022-08-16T17:45:56.602Z,36.96
2022-08-16T17:48:24.660Z,37.70
2022-08-16T17:50:54.581Z,38.96
2022-08-16T17:53:22.463Z,39.31
2022-08-16T17:55:50.535Z,40.38
2022-08-16T17:58:23.541Z,40.87
2022-08-16T18:00:56.599Z,41.55
2022-08-16T18:04:07.079Z,42.24
2022-08-16T18:06:24.157Z,43.15
2022-08-16T18:08:57.863Z,43.25
2022-08-16T18:11:30.070Z,43.80
2022-08-16T18:14:00.068Z,44.30
2022-08-16T18:16:26.958Z,45.17
2022-08-16T18:18:53.742Z,45.43
2022-08-16T18:21:38.993Z,45.98
2022-08-16T18:24:06.151Z,46.18
2022-08-16T18:26:33.064Z,47.34
2022-08-16T18:28:59.763Z,48.41
2022-08-16T18:31:26.698Z,50.43
2022-08-16T18:33:54.653Z,50.91
2022-08-16T18:36:24.128Z,51.70
2022-08-16T18:38:51.828Z,52.77
2022-08-16T18:41:21.333Z,53.22
2022-08-16T18:44:14.207Z,53.55
2022-08-16T18:46:34.799Z,53.47
2022-08-16T18:49:01.518Z,53.53
2022-08-16T18:51:28.204Z,55.42
2022-08-16T18:53:54.883Z,56.87
2022-08-16T18:56:21.605Z,58.11
2022-08-16T18:58:49.014Z,60.09
2022-08-16T19:01:15.891Z,60.08
2022-08-16T19:03:42.955Z,60.35
2022-08-16T19:06:13.952Z,61.02
2022-08-16T19:08:44.042Z,60.47
2022-08-16T19:11:14.871Z,60.74
2022-08-16T19:13:44.150Z,60.95
2022-08-16T19:16:14.854Z,61.22
2022-08-16T19:18:42.437Z,61.45
2022-08-16T19:21:14.638Z,62.40
2022-08-16T19:23:43.612Z,62.43
2022-08-16T19:26:24.476Z,63.37
2022-08-16T19:28:58.775Z,63.89
2022-08-16T19:31:32.917Z,64.51
2022-08-16T19:34:01.224Z,64.77
2022-08-16T19:36:35.974Z,65.14
2022-08-16T19:39:10.419Z,66.21
2022-08-16T19:41:40.357Z,67.12
2022-08-16T19:44:07.762Z,68.21
2022-08-16T19:46:35.451Z,68.91
2022-08-16T19:49:03.021Z,69.84
2022-08-16T19:51:29.902Z,70.71
2022-08-16T19:53:56.549Z,71.17
2022-08-16T19:56:25.635Z,73.43
2022-08-16T19:59:17.373Z,74.41
2022-08-16T20:01:42.238Z,74.83
2022-08-16T20:04:12.329Z,74.85
2022-08-16T20:06:43.142Z,77.80
2022-08-16T20:09:14.743Z,80.06
2022-08-16T20:11:45.984Z,81.60
2022-08-16T20:14:24.043Z,82.18
2022-08-16T20:16:51.981Z,82.89
2022-08-16T20:19:19.121Z,82.35
2022-08-16T20:21:46.154Z,82.28
2022-08-16T20:24:32.459Z,82.13
2022-08-16T20:26:59.670Z,82.12
2022-08-16T20:29:27.871Z,82.87
2022-08-16T20:31:54.929Z,84.55
2022-08-16T20:34:22.698Z,85.28
2022-08-16T20:36:49.418Z,86.18
2022-08-16T20:39:16.312Z,84.89
2022-08-16T20:41:43.175Z,85.23
2022-08-16T20:44:11.197Z,85.37
2022-08-16T20:46:38.985Z,86.58
2022-08-16T20:49:09.254Z,89.54
2022-08-16T20:51:50.849Z,89.04
2022-08-16T20:54:20.942Z,87.83
2022-08-16T20:56:48.128Z,88.35
2022-08-16T20:59:15.134Z,88.25
2022-08-16T21:01:47.039Z,88.95
2022-08-16T21:04:21.558Z,89.82
2022-08-16T21:06:53.815Z,90.46
2022-08-16T21:09:32.615Z,94.65
2022-08-16T21:12:03.307Z,96.86
2022-08-16T21:14:33.883Z,97.02
2022-08-16T21:17:02.407Z,96.51
2022-08-16T21:19:29.321Z,96.04
2022-08-16T21:21:56.424Z,95.52
2022-08-16T21:24:23.430Z,95.13
2022-08-16T21:26:55.534Z,95.75
2022-08-16T21:29:38.428Z,97.64
2022-08-16T21:32:14.658Z,99.68
2022-08-16T21:34:42.410Z,99.63
2022-08-16T21:37:10.085Z,100.00
2022-08-16T21:39:37.322Z,100.00
2022-08-16T21:42:09.133Z,100.00
2022-08-16T21:44:38.739Z,100.00
2022-08-16T21:47:06.549Z,100.00
2022-08-16T21:49:36.613Z,100.00
2022-08-16T21:52:04.718Z,100.00
2022-08-16T21:54:31.469Z,100.00
2022-08-16T21:56:58.153Z,100.00
2022-08-16T21:59:24.853Z,100.00
2022-08-16T22:01:51.601Z,100.00
2022-08-16T22:04:37.652Z,100.00
2022-08-16T22:07:05.975Z,100.00
2022-08-16T22:09:32.874Z,100.00
2022-08-16T22:11:59.649Z,100.00
2022-08-16T22:14:26.438Z,100.00
2022-08-16T22:16:53.256Z,100.00
2022-08-16T22:19:22.709Z,100.00
2022-08-16T22:21:49.513Z,100.00
2022-08-16T22:24:16.277Z,100.00
2022-08-16T22:26:43.803Z,100.00
2022-08-16T22:29:13.238Z,100.00
2022-08-16T22:31:41.506Z,100.00
2022-08-16T22:34:08.980Z,100.00
2022-08-16T22:36:36.318Z,100.00
2022-08-16T22:39:07.223Z,100.00
2022-08-16T22:41:35.977Z,100.00
2022-08-16T22:44:04.289Z,100.00
2022-08-16T22:46:31.416Z,100.00
2022-08-16T22:48:58.594Z,100.00
2022-08-16T22:51:27.630Z,100.00
2022-08-16T22:53:55.669Z,100.00
2022-08-16T22:56:23.931Z,100.00
2022-08-16T22:58:50.752Z,100.00
2022-08-16T23:01:20.417Z,100.00
2022-08-16T23:03:58.425Z,100.00
2022-08-16T23:06:25.218Z,100.00
2022-08-16T23:08:52.093Z,100.00
2022-08-16T23:11:22.677Z,100.00
2022-08-16T23:13:54.349Z,100.00
2022-08-16T23:16:33.532Z,100.00
2022-08-16T23:19:10.401Z,100.00
2022-08-16T23:21:39.525Z,100.00
2022-08-16T23:24:07.514Z,100.00
2022-08-16T23:26:44.268Z,100.00
2022-08-16T23:29:24.937Z,100.00
2022-08-16T23:31:56.207Z,100.00
2022-08-16T23:34:23.871Z,100.00
2022-08-16T23:36:50.479Z,100.00
2022-08-16T23:39:17.197Z,100.00
2022-08-16T23:41:44.445Z,100.00
2022-08-16T23:44:54.951Z,100.00
2022-08-16T23:46:57.798Z,100.00
2022-08-16T23:49:56.030Z,100.00
2022-08-16T23:52:11.598Z,100.00
2022-08-16T23:54:38.467Z,100.00
2022-08-16T23:57:05.237Z,100.00
2022-08-16T23:59:37.441Z,100.00
